createdAt,value
2022-11-06T00:00:14.290Z,7.68
2022-11-06T00:01:14.289Z,7.54
2022-11-06T00:02:20.264Z,7.60
2022-11-06T00:03:16.317Z,7.54
2022-11-06T00:04:14.269Z,7.64
2022-11-06T00:05:14.263Z,7.66
2022-11-06T00:06:14.285Z,7.64
2022-11-06T00:07:14.279Z,7.53
2022-11-06T00:08:14.671Z,7.56
2022-11-06T00:09:14.249Z,7.59
2022-11-06T00:10:14.198Z,7.56
2022-11-06T00:11:14.198Z,7.42
2022-11-06T00:12:14.219Z,7.53
2022-11-06T00:13:14.180Z,7.53
2022-11-06T00:14:14.166Z,7.52
2022-11-06T00:15:14.198Z,7.44
2022-11-06T00:16:14.197Z,7.35
2022-11-06T00:17:14.173Z,7.34
2022-11-06T00:18:14.477Z,7.41
2022-11-06T00:19:14.135Z,7.32
2022-11-06T00:20:14.116Z,7.28
2022-11-06T00:21:14.116Z,7.18
2022-11-06T00:22:14.138Z,7.14
2022-11-06T00:23:14.107Z,7.26
2022-11-06T00:24:14.087Z,7.20
2022-11-06T00:25:14.083Z,7.23
2022-11-06T00:26:14.106Z,7.21
2022-11-06T00:27:14.102Z,7.14
2022-11-06T00:28:14.404Z,7.20
2022-11-06T00:29:14.076Z,7.08
2022-11-06T00:30:14.046Z,7.07
2022-11-06T00:31:14.041Z,7.00
2022-11-06T00:32:14.056Z,7.07
2022-11-06T00:33:14.015Z,7.11
2022-11-06T00:34:14.064Z,7.13
2022-11-06T00:35:14.022Z,7.02
2022-11-06T00:36:13.988Z,6.96
2022-11-06T00:37:14.039Z,7.02
2022-11-06T00:38:14.255Z,7.00
2022-11-06T00:39:14.966Z,6.96
2022-11-06T00:40:13.967Z,6.96
2022-11-06T00:41:13.957Z,7.02
2022-11-06T00:42:13.974Z,7.02
2022-11-06T00:43:13.928Z,6.96
2022-11-06T00:44:13.924Z,6.95
2022-11-06T00:45:13.937Z,6.84
2022-11-06T00:46:13.935Z,6.88
2022-11-06T00:47:13.934Z,6.88
2022-11-06T00:48:14.304Z,6.85
2022-11-06T00:49:13.885Z,6.84
2022-11-06T00:50:13.888Z,6.78
2022-11-06T00:51:13.870Z,6.74
2022-11-06T00:52:13.862Z,6.60
2022-11-06T00:53:13.883Z,6.59
2022-11-06T00:54:13.877Z,6.49
2022-11-06T00:55:13.833Z,6.44
2022-11-06T00:56:13.858Z,6.47
2022-11-06T00:57:13.819Z,6.38
2022-11-06T00:58:14.299Z,6.47
2022-11-06T00:59:13.800Z,6.48
2022-11-06T01:00:13.796Z,6.55
2022-11-06T01:01:13.797Z,6.45
2022-11-06T01:02:13.859Z,6.57
2022-11-06T01:03:13.812Z,6.59
2022-11-06T01:04:13.763Z,6.53
2022-11-06T01:05:13.748Z,6.62
2022-11-06T01:06:13.731Z,6.70
2022-11-06T01:07:13.731Z,6.65
2022-11-06T01:08:14.116Z,6.70
2022-11-06T01:09:13.781Z,6.67
2022-11-06T01:10:13.728Z,6.80
2022-11-06T01:11:13.700Z,6.74
2022-11-06T01:12:14.627Z,6.73
2022-11-06T01:13:14.720Z,6.77
2022-11-06T01:14:13.669Z,6.80
2022-11-06T01:15:13.659Z,6.93
2022-11-06T01:16:13.657Z,7.00
2022-11-06T01:17:13.655Z,7.03
2022-11-06T01:18:13.929Z,7.11
2022-11-06T01:19:13.626Z,7.20
2022-11-06T01:20:13.616Z,7.29
2022-11-06T01:21:13.626Z,7.18
2022-11-06T01:22:13.603Z,7.26
2022-11-06T01:23:13.616Z,7.28
2022-11-06T01:24:13.650Z,7.41
2022-11-06T01:25:13.611Z,7.46
2022-11-06T01:26:13.569Z,7.57
2022-11-06T01:27:26.483Z,7.56
2022-11-06T01:28:15.744Z,7.57
2022-11-06T01:29:13.545Z,7.56
2022-11-06T01:30:13.539Z,7.52
2022-11-06T01:31:13.545Z,7.56
2022-11-06T01:32:13.523Z,7.54
2022-11-06T01:33:13.527Z,7.59
2022-11-06T01:34:14.499Z,7.54
2022-11-06T01:35:13.519Z,7.53
2022-11-06T01:36:13.479Z,7.53
2022-11-06T01:37:14.977Z,7.54
2022-11-06T01:38:14.691Z,7.60
2022-11-06T01:39:13.456Z,7.56
2022-11-06T01:40:13.482Z,7.50
2022-11-06T01:41:13.445Z,7.59
2022-11-06T01:42:13.479Z,7.64
2022-11-06T01:43:13.455Z,7.57
2022-11-06T01:44:13.416Z,7.56
2022-11-06T01:45:13.412Z,7.64
2022-11-06T01:46:13.400Z,7.60
2022-11-06T01:47:13.395Z,7.60
2022-11-06T01:48:13.639Z,7.60
2022-11-06T01:49:13.398Z,7.56
2022-11-06T01:50:13.413Z,7.56
2022-11-06T01:51:13.364Z,7.52
2022-11-06T01:52:13.348Z,7.50
2022-11-06T01:53:13.378Z,7.57
2022-11-06T01:54:13.344Z,7.53
2022-11-06T01:55:13.321Z,7.50
2022-11-06T01:56:13.315Z,7.36
2022-11-06T01:57:13.307Z,7.42
2022-11-06T01:58:13.553Z,7.34
2022-11-06T01:59:13.361Z,7.26
2022-11-06T02:00:13.297Z,7.28
2022-11-06T02:01:13.288Z,7.28
2022-11-06T02:02:13.314Z,7.25
2022-11-06T02:03:13.332Z,7.14
2022-11-06T02:04:13.260Z,7.10
2022-11-06T02:05:13.239Z,7.14
2022-11-06T02:06:13.242Z,7.20
2022-11-06T02:07:13.216Z,7.20
2022-11-06T02:08:13.486Z,7.07
2022-11-06T02:09:13.211Z,7.11
2022-11-06T02:10:13.201Z,7.11
2022-11-06T02:11:13.218Z,7.11
2022-11-06T02:12:13.196Z,6.99
2022-11-06T02:13:13.201Z,7.00
2022-11-06T02:14:13.188Z,7.00
2022-11-06T02:15:13.154Z,7.03
2022-11-06T02:16:13.161Z,7.07
2022-11-06T02:17:13.140Z,7.00
2022-11-06T02:18:13.393Z,7.03
2022-11-06T02:19:13.190Z,7.13
2022-11-06T02:20:13.130Z,7.14
2022-11-06T02:21:13.112Z,7.10
2022-11-06T02:22:13.095Z,7.08
2022-11-06T02:23:13.157Z,7.11
2022-11-06T02:24:13.100Z,7.03
2022-11-06T02:25:13.102Z,7.13
2022-11-06T02:26:13.090Z,7.08
2022-11-06T02:27:13.052Z,7.17
2022-11-06T02:28:13.401Z,7.13
2022-11-06T02:29:13.056Z,7.21
2022-11-06T02:30:13.033Z,7.10
2022-11-06T02:31:13.099Z,7.20
2022-11-06T02:32:13.052Z,7.23
2022-11-06T02:33:13.025Z,7.23
2022-11-06T02:34:14.077Z,7.36
2022-11-06T02:35:13.017Z,7.31
2022-11-06T02:36:12.988Z,7.32
2022-11-06T02:37:13.034Z,7.38
2022-11-06T02:38:13.199Z,7.34
2022-11-06T02:39:12.970Z,7.34
2022-11-06T02:40:12.974Z,7.39
2022-11-06T02:41:12.938Z,7.36
2022-11-06T02:42:13.029Z,7.44
2022-11-06T02:43:12.934Z,7.47
2022-11-06T02:44:12.908Z,7.38
2022-11-06T02:45:12.907Z,7.49
2022-11-06T02:46:12.894Z,7.49
2022-11-06T02:47:12.903Z,7.46
2022-11-06T02:48:13.238Z,7.49
2022-11-06T02:49:12.891Z,7.50
2022-11-06T02:50:12.872Z,7.56
2022-11-06T02:51:12.858Z,7.57
2022-11-06T02:52:12.876Z,7.54
2022-11-06T02:53:12.893Z,7.54
2022-11-06T02:54:12.832Z,7.49
2022-11-06T02:55:12.853Z,7.52
2022-11-06T02:56:12.812Z,7.50
2022-11-06T02:57:12.806Z,7.49
2022-11-06T02:58:13.090Z,7.53
2022-11-06T02:59:12.802Z,7.50
2022-11-06T03:00:12.786Z,7.49
2022-11-06T03:01:12.771Z,7.53
2022-11-06T03:02:12.916Z,7.54
2022-11-06T03:03:12.769Z,7.46
2022-11-06T03:04:12.760Z,7.47
2022-11-06T03:05:12.742Z,7.49
2022-11-06T03:06:12.732Z,7.46
2022-11-06T03:07:12.772Z,7.50
2022-11-06T03:08:12.953Z,7.52
2022-11-06T03:09:12.764Z,7.54
2022-11-06T03:10:12.702Z,7.47
2022-11-06T03:11:12.710Z,7.54
2022-11-06T03:12:12.828Z,7.52
2022-11-06T03:13:12.683Z,7.46
2022-11-06T03:14:12.659Z,7.54
2022-11-06T03:15:12.671Z,7.54
2022-11-06T03:16:12.672Z,7.50
2022-11-06T03:17:12.669Z,7.54
2022-11-06T03:18:12.928Z,7.62
2022-11-06T03:19:12.624Z,7.57
2022-11-06T03:20:12.625Z,7.60
2022-11-06T03:21:12.604Z,7.64
2022-11-06T03:22:12.627Z,7.70
2022-11-06T03:23:12.582Z,7.60
2022-11-06T03:24:12.582Z,7.62
2022-11-06T03:25:12.610Z,7.68
2022-11-06T03:26:12.575Z,7.68
2022-11-06T03:27:12.568Z,7.78
2022-11-06T03:28:12.921Z,7.76
2022-11-06T03:29:12.547Z,7.78
2022-11-06T03:30:16.332Z,7.66
2022-11-06T03:31:13.539Z,7.72
2022-11-06T03:32:12.519Z,7.88
2022-11-06T03:33:12.539Z,7.76
2022-11-06T03:34:12.513Z,7.73
2022-11-06T03:35:12.509Z,7.87
2022-11-06T03:36:12.478Z,7.84
2022-11-06T03:37:12.503Z,7.80
2022-11-06T03:38:12.813Z,7.80
2022-11-06T03:39:12.458Z,7.78
2022-11-06T03:40:12.451Z,7.86
2022-11-06T03:41:12.448Z,7.76
2022-11-06T03:42:12.467Z,7.90
2022-11-06T03:43:12.429Z,7.83
2022-11-06T03:44:12.423Z,7.93
2022-11-06T03:45:12.448Z,7.88
2022-11-06T03:46:12.395Z,7.87
2022-11-06T03:47:12.499Z,7.88
2022-11-06T03:48:12.709Z,7.94
2022-11-06T03:49:12.381Z,7.88
2022-11-06T03:50:12.390Z,7.90
2022-11-06T03:51:12.365Z,7.88
2022-11-06T03:52:12.393Z,7.96
2022-11-06T03:53:12.344Z,7.87
2022-11-06T03:54:12.356Z,7.91
2022-11-06T03:55:12.394Z,7.88
2022-11-06T03:56:12.310Z,7.98
2022-11-06T03:57:12.385Z,7.96
2022-11-06T03:58:12.580Z,8.04
2022-11-06T03:59:13.360Z,7.94
2022-11-06T04:00:12.282Z,8.04
2022-11-06T04:01:12.278Z,7.96
2022-11-06T04:02:12.456Z,8.02
2022-11-06T04:03:12.269Z,7.88
2022-11-06T04:04:12.247Z,8.09
2022-11-06T04:05:12.262Z,8.01
2022-11-06T04:06:12.230Z,8.02
2022-11-06T04:07:12.280Z,8.12
2022-11-06T04:08:12.554Z,8.11
2022-11-06T04:09:12.212Z,8.15
2022-11-06T04:10:12.209Z,8.20
2022-11-06T04:11:12.189Z,8.15
2022-11-06T04:12:12.217Z,8.20
2022-11-06T04:13:12.175Z,8.20
2022-11-06T04:14:12.208Z,8.27
2022-11-06T04:15:12.180Z,8.21
2022-11-06T04:16:12.157Z,8.24
2022-11-06T04:17:12.180Z,8.16
2022-11-06T04:18:12.402Z,8.18
2022-11-06T04:19:12.123Z,8.26
2022-11-06T04:20:12.114Z,8.20
2022-11-06T04:21:12.104Z,8.24
2022-11-06T04:22:12.121Z,8.39
2022-11-06T04:23:12.094Z,8.27
2022-11-06T04:24:12.081Z,8.30
2022-11-06T04:25:12.079Z,8.26
2022-11-06T04:26:12.062Z,8.34
2022-11-06T04:27:12.101Z,8.30
2022-11-06T04:28:12.428Z,8.33
2022-11-06T04:29:12.033Z,8.23
2022-11-06T04:30:12.027Z,8.27
2022-11-06T04:31:12.051Z,8.30
2022-11-06T04:32:12.004Z,8.20
2022-11-06T04:33:12.017Z,8.20
2022-11-06T04:34:11.994Z,8.29
2022-11-06T04:35:11.978Z,8.27
2022-11-06T04:36:12.029Z,8.33
2022-11-06T04:37:11.967Z,8.21
2022-11-06T04:38:12.290Z,8.30
2022-11-06T04:39:11.961Z,8.33
2022-11-06T04:40:11.938Z,8.24
2022-11-06T04:41:12.024Z,8.16
2022-11-06T04:42:11.923Z,8.23
2022-11-06T04:43:11.986Z,8.23
2022-11-06T04:44:11.908Z,8.21
2022-11-06T04:45:11.902Z,8.30
2022-11-06T04:46:11.927Z,8.26
2022-11-06T04:47:11.883Z,8.18
2022-11-06T04:48:12.311Z,8.24
2022-11-06T04:49:11.865Z,8.26
2022-11-06T04:50:11.870Z,8.18
2022-11-06T04:51:11.849Z,8.34
2022-11-06T04:52:11.880Z,8.26
2022-11-06T04:53:11.833Z,8.27
2022-11-06T04:54:11.826Z,8.24
2022-11-06T04:55:11.834Z,8.21
2022-11-06T04:56:11.798Z,8.23
2022-11-06T04:57:11.826Z,8.24
2022-11-06T04:58:12.071Z,8.16
2022-11-06T04:59:12.790Z,8.16
2022-11-06T05:00:11.787Z,8.23
2022-11-06T05:01:11.812Z,8.24
2022-11-06T05:02:11.840Z,8.23
2022-11-06T05:03:11.759Z,8.16
2022-11-06T05:04:11.760Z,8.20
2022-11-06T05:05:11.748Z,8.16
2022-11-06T05:06:11.727Z,8.16
2022-11-06T05:07:11.741Z,8.21
2022-11-06T05:08:12.149Z,8.24
2022-11-06T05:09:11.702Z,8.15
2022-11-06T05:10:11.712Z,8.26
2022-11-06T05:11:11.701Z,8.26
2022-11-06T05:12:11.712Z,8.18
2022-11-06T05:13:11.665Z,8.21
2022-11-06T05:14:11.654Z,8.16
2022-11-06T05:15:11.651Z,8.16
2022-11-06T05:16:11.654Z,8.18
2022-11-06T05:17:11.755Z,8.16
2022-11-06T05:18:12.099Z,8.16
2022-11-06T05:19:11.615Z,8.12
2022-11-06T05:20:11.602Z,8.13
2022-11-06T05:21:11.616Z,8.24
2022-11-06T05:22:11.838Z,8.21
2022-11-06T05:23:11.596Z,8.16
2022-11-06T05:24:11.575Z,8.16
2022-11-06T05:25:11.587Z,8.16
2022-11-06T05:26:11.557Z,8.20
2022-11-06T05:27:11.584Z,8.27
2022-11-06T05:28:11.908Z,8.20
2022-11-06T05:29:11.547Z,8.20
2022-11-06T05:30:11.519Z,8.34
2022-11-06T05:31:11.516Z,8.23
2022-11-06T05:32:11.536Z,8.23
2022-11-06T05:33:11.523Z,8.26
2022-11-06T05:34:11.536Z,8.34
2022-11-06T05:35:11.482Z,8.33
2022-11-06T05:36:11.464Z,8.33
2022-11-06T05:37:11.507Z,8.38
2022-11-06T05:38:11.862Z,8.31
2022-11-06T05:39:11.446Z,8.41
2022-11-06T05:40:11.451Z,8.38
2022-11-06T05:41:11.440Z,8.38
2022-11-06T05:42:11.464Z,8.39
2022-11-06T05:43:11.404Z,8.39
2022-11-06T05:44:11.427Z,8.39
2022-11-06T05:45:11.386Z,8.36
2022-11-06T05:46:29.749Z,8.34
2022-11-06T05:47:13.400Z,8.39
2022-11-06T05:48:11.715Z,8.30
2022-11-06T05:49:11.360Z,8.33
2022-11-06T05:50:11.350Z,8.34
2022-11-06T05:51:11.359Z,8.26
2022-11-06T05:52:11.364Z,8.33
2022-11-06T05:53:11.328Z,8.39
2022-11-06T05:54:11.312Z,8.36
2022-11-06T05:55:14.658Z,8.27
2022-11-06T05:56:12.300Z,8.33
2022-11-06T05:57:11.321Z,8.34
2022-11-06T05:58:11.555Z,8.44
2022-11-06T05:59:11.276Z,8.47
2022-11-06T06:00:11.276Z,8.29
2022-11-06T06:01:11.270Z,8.33
2022-11-06T06:02:11.372Z,8.36
2022-11-06T06:03:11.303Z,8.41
2022-11-06T06:04:12.227Z,8.38
2022-11-06T06:05:11.222Z,8.42
2022-11-06T06:06:11.216Z,8.47
2022-11-06T06:07:11.241Z,8.38
2022-11-06T06:08:11.506Z,8.39
2022-11-06T06:09:11.192Z,8.44
2022-11-06T06:10:11.184Z,8.34
2022-11-06T06:11:11.176Z,8.30
2022-11-06T06:12:11.163Z,8.27
2022-11-06T06:13:11.324Z,8.23
2022-11-06T06:14:11.167Z,8.23
2022-11-06T06:15:11.136Z,8.30
2022-11-06T06:16:11.153Z,8.30
2022-11-06T06:17:11.118Z,8.24
2022-11-06T06:18:11.650Z,8.26
2022-11-06T06:19:11.103Z,8.18
2022-11-06T06:20:11.098Z,8.27
2022-11-06T06:21:11.103Z,8.31
2022-11-06T06:22:11.090Z,8.27
2022-11-06T06:23:11.112Z,8.38
2022-11-06T06:24:11.116Z,8.29
2022-11-06T06:25:21.350Z,8.34
2022-11-06T06:26:13.040Z,8.30
2022-11-06T06:27:11.031Z,8.26
2022-11-06T06:28:11.340Z,8.38
2022-11-06T06:29:11.004Z,8.36
2022-11-06T06:30:12.005Z,8.36
2022-11-06T06:31:10.997Z,8.27
2022-11-06T06:32:10.999Z,8.38
2022-11-06T06:33:11.004Z,8.26
2022-11-06T06:34:10.981Z,8.29
2022-11-06T06:35:10.973Z,8.21
2022-11-06T06:36:10.957Z,8.26
2022-11-06T06:37:10.949Z,8.20
2022-11-06T06:38:11.378Z,8.30
2022-11-06T06:39:10.935Z,8.21
2022-11-06T06:40:10.925Z,8.23
2022-11-06T06:41:10.917Z,8.26
2022-11-06T06:42:10.902Z,8.24
2022-11-06T06:43:10.928Z,8.23
2022-11-06T06:44:10.895Z,8.16
2022-11-06T06:45:10.882Z,8.21
2022-11-06T06:46:10.875Z,8.23
2022-11-06T06:47:10.865Z,8.21
2022-11-06T06:48:11.324Z,8.27
2022-11-06T06:49:10.855Z,8.26
2022-11-06T06:50:10.835Z,8.30
2022-11-06T06:51:10.838Z,8.26
2022-11-06T06:52:10.828Z,8.24
2022-11-06T06:53:10.847Z,8.21
2022-11-06T06:54:10.830Z,8.30
2022-11-06T06:55:10.801Z,8.30
2022-11-06T06:56:10.801Z,8.34
2022-11-06T06:57:10.777Z,8.31
2022-11-06T06:58:16.568Z,8.33
2022-11-06T06:59:12.772Z,8.36
2022-11-06T07:00:10.760Z,8.36
2022-11-06T07:01:10.840Z,8.44
2022-11-06T07:02:10.811Z,8.44
2022-11-06T07:03:10.761Z,8.47
2022-11-06T07:04:10.720Z,8.49
2022-11-06T07:05:10.720Z,8.52
2022-11-06T07:06:10.726Z,8.54
2022-11-06T07:07:10.695Z,8.48
2022-11-06T07:08:11.057Z,8.55
2022-11-06T07:09:10.688Z,8.67
2022-11-06T07:10:10.684Z,8.69
2022-11-06T07:11:10.671Z,8.77
2022-11-06T07:12:10.662Z,8.62
2022-11-06T07:13:10.973Z,8.73
2022-11-06T07:14:10.641Z,8.84
2022-11-06T07:15:10.642Z,8.78
2022-11-06T07:16:10.618Z,8.69
2022-11-06T07:17:10.633Z,8.93
2022-11-06T07:18:10.903Z,8.87
2022-11-06T07:19:10.618Z,8.95
2022-11-06T07:20:10.600Z,9.03
2022-11-06T07:21:10.587Z,9.03
2022-11-06T07:22:10.581Z,9.15
2022-11-06T07:23:10.594Z,9.24
2022-11-06T07:24:10.562Z,9.39
2022-11-06T07:25:10.561Z,9.47
2022-11-06T07:26:10.544Z,9.64
2022-11-06T07:27:10.537Z,9.86
2022-11-06T07:28:10.572Z,10.06
2022-11-06T07:29:10.596Z,10.08
2022-11-06T07:30:10.512Z,10.18
2022-11-06T07:31:10.504Z,10.12
2022-11-06T07:32:10.498Z,10.49
2022-11-06T07:33:10.511Z,10.64
2022-11-06T07:34:10.483Z,10.57
2022-11-06T07:35:10.470Z,11.05
2022-11-06T07:36:10.465Z,11.63
2022-11-06T07:37:10.449Z,11.99
2022-11-06T07:38:10.697Z,12.51
2022-11-06T07:39:10.432Z,13.13
2022-11-06T07:40:10.432Z,13.63
2022-11-06T07:41:10.424Z,13.85
2022-11-06T07:42:10.403Z,14.05
2022-11-06T07:43:10.430Z,14.74
2022-11-06T07:44:42.922Z,15.15
2022-11-06T07:45:10.375Z,15.69
2022-11-06T07:46:10.418Z,16.12
2022-11-06T07:47:10.362Z,16.43
2022-11-06T07:48:10.394Z,16.50
2022-11-06T07:49:10.353Z,16.49
2022-11-06T07:50:10.341Z,16.53
2022-11-06T07:51:10.334Z,16.84
2022-11-06T07:52:10.327Z,16.80
2022-11-06T07:53:10.511Z,16.56
2022-11-06T07:54:10.308Z,16.46
2022-11-06T07:55:10.301Z,16.44
2022-11-06T07:56:10.322Z,16.51
2022-11-06T07:57:10.289Z,16.28
2022-11-06T07:58:10.393Z,16.10
2022-11-06T07:59:10.260Z,16.59
2022-11-06T08:00:10.261Z,16.53
2022-11-06T08:01:12.963Z,16.46
2022-11-06T08:02:12.408Z,16.51
2022-11-06T08:03:10.241Z,16.75
2022-11-06T08:04:10.247Z,16.72
2022-11-06T08:05:10.226Z,16.80
2022-11-06T08:06:10.210Z,16.68
2022-11-06T08:07:10.206Z,16.57
2022-11-06T08:08:10.318Z,16.98
2022-11-06T08:09:10.206Z,17.04
2022-11-06T08:10:10.168Z,17.02
2022-11-06T08:11:10.165Z,16.90
2022-11-06T08:12:10.158Z,16.99
2022-11-06T08:13:10.152Z,17.38
2022-11-06T08:14:10.157Z,17.16
2022-11-06T08:15:11.130Z,17.16
2022-11-06T08:16:10.123Z,17.26
2022-11-06T08:17:10.116Z,16.91
2022-11-06T08:18:11.499Z,16.66
2022-11-06T08:19:10.131Z,16.90
2022-11-06T08:20:10.089Z,17.09
2022-11-06T08:21:10.084Z,17.71
2022-11-06T08:22:10.066Z,17.91
2022-11-06T08:23:10.068Z,17.89
2022-11-06T08:24:10.089Z,17.80
2022-11-06T08:25:10.052Z,17.82
2022-11-06T08:26:10.044Z,18.00
2022-11-06T08:27:10.104Z,17.48
2022-11-06T08:28:10.179Z,17.70
2022-11-06T08:29:10.052Z,17.59
2022-11-06T08:30:10.007Z,17.95
2022-11-06T08:31:10.010Z,18.13
2022-11-06T08:32:10.003Z,17.76
2022-11-06T08:33:09.993Z,17.70
2022-11-06T08:34:10.027Z,17.83
2022-11-06T08:35:09.969Z,17.57
2022-11-06T08:36:09.981Z,17.54
2022-11-06T08:37:09.959Z,17.22
2022-11-06T08:38:09.948Z,17.37
2022-11-06T08:39:09.968Z,17.60
2022-11-06T08:40:09.930Z,17.20
2022-11-06T08:41:09.918Z,17.54
2022-11-06T08:42:09.927Z,17.56
2022-11-06T08:43:09.912Z,17.78
2022-11-06T08:44:09.928Z,17.78
2022-11-06T08:45:09.889Z,17.95
2022-11-06T08:46:09.954Z,17.80
2022-11-06T08:47:09.875Z,17.93
2022-11-06T08:48:09.873Z,18.09
2022-11-06T08:49:09.899Z,17.91
2022-11-06T08:50:09.855Z,17.91
2022-11-06T08:51:09.843Z,18.18
2022-11-06T08:52:09.838Z,18.41
2022-11-06T08:53:09.842Z,18.44
2022-11-06T08:54:09.877Z,18.66
2022-11-06T08:55:09.811Z,19.04
2022-11-06T08:56:09.804Z,19.42
2022-11-06T08:57:09.796Z,20.14
2022-11-06T08:58:09.805Z,20.26
2022-11-06T08:59:09.815Z,20.55
2022-11-06T09:00:09.769Z,19.71
2022-11-06T09:01:09.840Z,19.23
2022-11-06T09:02:09.862Z,19.30
2022-11-06T09:03:09.747Z,19.49
2022-11-06T09:04:09.774Z,19.18
2022-11-06T09:05:09.730Z,19.29
2022-11-06T09:06:09.720Z,18.90
2022-11-06T09:07:09.713Z,18.98
2022-11-06T09:08:09.711Z,18.90
2022-11-06T09:09:09.735Z,19.31
2022-11-06T09:10:09.692Z,18.99
2022-11-06T09:11:09.681Z,18.67
2022-11-06T09:12:09.687Z,18.38
2022-11-06T09:13:09.677Z,18.43
2022-11-06T09:14:09.656Z,18.90
2022-11-06T09:15:09.680Z,18.95
2022-11-06T09:16:15.343Z,19.24
2022-11-06T09:17:11.635Z,19.22
2022-11-06T09:18:09.623Z,19.70
2022-11-06T09:19:09.628Z,19.74
2022-11-06T09:20:09.642Z,19.82
2022-11-06T09:21:09.609Z,18.93
2022-11-06T09:22:09.594Z,18.73
2022-11-06T09:23:09.588Z,18.88
2022-11-06T09:24:09.572Z,18.59
2022-11-06T09:25:09.601Z,18.60
2022-11-06T09:26:09.567Z,18.75
2022-11-06T09:27:09.546Z,18.73
2022-11-06T09:28:10.552Z,18.62
2022-11-06T09:29:09.549Z,19.14
2022-11-06T09:30:09.574Z,18.85
2022-11-06T09:31:09.528Z,19.22
2022-11-06T09:32:09.520Z,19.16
2022-11-06T09:33:13.557Z,18.68
2022-11-06T09:34:10.497Z,18.98
2022-11-06T09:35:09.540Z,19.37
2022-11-06T09:36:09.492Z,18.86
2022-11-06T09:37:09.483Z,18.99
2022-11-06T09:38:09.471Z,19.12
2022-11-06T09:39:09.458Z,19.44
2022-11-06T09:40:09.451Z,19.15
2022-11-06T09:41:09.475Z,18.78
2022-11-06T09:42:09.438Z,18.83
2022-11-06T09:43:09.431Z,18.92
2022-11-06T09:44:09.420Z,18.86
2022-11-06T09:45:09.415Z,18.73
2022-11-06T09:46:09.437Z,19.16
2022-11-06T09:47:09.390Z,19.27
2022-11-06T09:48:09.383Z,18.99
2022-11-06T09:49:09.389Z,19.09
2022-11-06T09:50:09.379Z,19.04
2022-11-06T09:51:09.397Z,19.12
2022-11-06T09:52:09.364Z,19.44
2022-11-06T09:53:09.347Z,18.95
2022-11-06T09:54:09.359Z,19.12
2022-11-06T09:55:09.337Z,19.04
2022-11-06T09:56:09.347Z,19.63
2022-11-06T09:57:10.326Z,19.31
2022-11-06T09:58:09.310Z,19.86
2022-11-06T09:59:09.311Z,20.19
2022-11-06T10:00:09.294Z,20.63
2022-11-06T10:01:09.381Z,20.85
2022-11-06T10:02:09.404Z,20.65
2022-11-06T10:03:09.265Z,21.05
2022-11-06T10:04:09.263Z,20.97
2022-11-06T10:05:09.256Z,21.63
2022-11-06T10:06:09.299Z,21.59
2022-11-06T10:07:09.250Z,21.17
2022-11-06T10:08:09.228Z,20.82
2022-11-06T10:09:09.230Z,21.03
2022-11-06T10:10:09.219Z,21.35
2022-11-06T10:11:09.239Z,21.63
2022-11-06T10:12:09.203Z,21.54
2022-11-06T10:13:10.754Z,21.48
2022-11-06T10:14:09.178Z,21.15
2022-11-06T10:15:09.176Z,21.27
2022-11-06T10:16:09.211Z,21.42
2022-11-06T10:17:10.159Z,21.20
2022-11-06T10:18:09.158Z,21.37
2022-11-06T10:19:09.147Z,21.08
2022-11-06T10:20:09.133Z,21.20
2022-11-06T10:21:09.156Z,20.97
2022-11-06T10:22:09.111Z,20.62
2022-11-06T10:23:10.110Z,20.66
2022-11-06T10:24:09.102Z,20.53
2022-11-06T10:25:09.101Z,20.77
2022-11-06T10:26:09.125Z,20.78
2022-11-06T10:27:09.086Z,20.93
2022-11-06T10:28:09.072Z,20.78
2022-11-06T10:29:09.073Z,21.39
2022-11-06T10:30:09.060Z,21.47
2022-11-06T10:31:09.084Z,20.67
2022-11-06T10:32:09.052Z,20.24
2022-11-06T10:33:09.037Z,20.25
2022-11-06T10:34:09.063Z,20.72
2022-11-06T10:35:09.025Z,20.75
2022-11-06T10:36:09.158Z,20.40
2022-11-06T10:37:09.011Z,20.41
2022-11-06T10:38:08.996Z,20.33
2022-11-06T10:39:08.989Z,19.88
2022-11-06T10:40:08.978Z,19.67
2022-11-06T10:41:08.976Z,19.91
2022-11-06T10:42:08.994Z,19.86
2022-11-06T10:43:08.954Z,20.66
2022-11-06T10:44:08.952Z,20.81
2022-11-06T10:45:08.956Z,20.57
2022-11-06T10:46:08.960Z,19.69
2022-11-06T10:47:08.925Z,20.11
2022-11-06T10:48:08.918Z,20.26
2022-11-06T10:49:08.910Z,20.31
2022-11-06T10:50:08.903Z,19.56
2022-11-06T10:51:08.921Z,19.88
2022-11-06T10:52:08.882Z,19.89
2022-11-06T10:53:08.880Z,20.11
2022-11-06T10:54:08.868Z,20.41
2022-11-06T10:55:09.913Z,20.41
2022-11-06T10:56:11.134Z,20.82
2022-11-06T10:57:09.846Z,20.03
2022-11-06T10:58:08.845Z,20.63
2022-11-06T10:59:08.836Z,20.90
2022-11-06T11:00:08.826Z,20.95
2022-11-06T11:01:08.888Z,20.72
2022-11-06T11:02:08.924Z,20.66
2022-11-06T11:03:08.797Z,21.06
2022-11-06T11:04:08.792Z,21.59
2022-11-06T11:05:08.826Z,21.40
2022-11-06T11:06:08.776Z,21.08
2022-11-06T11:07:08.798Z,21.95
2022-11-06T11:08:08.762Z,21.93
2022-11-06T11:09:08.750Z,21.65
2022-11-06T11:10:08.771Z,21.82
2022-11-06T11:11:08.742Z,21.98
2022-11-06T11:12:08.759Z,21.69
2022-11-06T11:13:09.155Z,21.52
2022-11-06T11:14:09.707Z,21.66
2022-11-06T11:15:08.703Z,21.84
2022-11-06T11:16:08.701Z,21.20
2022-11-06T11:17:08.713Z,20.74
2022-11-06T11:18:08.682Z,20.41
2022-11-06T11:19:08.698Z,20.40
2022-11-06T11:20:08.672Z,20.63
2022-11-06T11:21:08.661Z,21.17
2022-11-06T11:22:08.684Z,21.35
2022-11-06T11:23:08.747Z,21.20
2022-11-06T11:24:08.630Z,21.18
2022-11-06T11:25:08.624Z,20.72
2022-11-06T11:26:08.609Z,20.96
2022-11-06T11:27:08.752Z,21.36
2022-11-06T11:28:08.596Z,21.85
2022-11-06T11:29:08.593Z,22.25
2022-11-06T11:30:08.584Z,22.80
2022-11-06T11:31:08.588Z,23.24
2022-11-06T11:32:08.604Z,23.83
2022-11-06T11:33:08.559Z,23.86
2022-11-06T11:34:08.556Z,23.25
2022-11-06T11:35:08.542Z,22.77
2022-11-06T11:36:08.539Z,21.81
2022-11-06T11:37:08.555Z,22.15
2022-11-06T11:38:08.517Z,22.56
2022-11-06T11:39:08.518Z,22.96
2022-11-06T11:40:13.266Z,23.20
2022-11-06T11:41:10.493Z,23.05
2022-11-06T11:42:08.514Z,23.07
2022-11-06T11:43:08.487Z,23.28
2022-11-06T11:44:08.477Z,23.05
2022-11-06T11:45:08.460Z,22.77
2022-11-06T11:46:08.467Z,22.93
2022-11-06T11:47:09.314Z,23.22
2022-11-06T11:48:09.442Z,23.20
2022-11-06T11:49:08.439Z,23.36
2022-11-06T11:50:08.426Z,23.27
2022-11-06T11:51:08.419Z,23.37
2022-11-06T11:52:08.426Z,23.09
2022-11-06T11:53:10.568Z,22.88
2022-11-06T11:54:09.396Z,22.91
2022-11-06T11:55:08.392Z,22.47
2022-11-06T11:56:08.386Z,23.05
2022-11-06T11:57:09.376Z,22.98
2022-11-06T11:58:08.401Z,22.93
2022-11-06T11:59:08.418Z,23.03
2022-11-06T12:00:08.349Z,22.77
2022-11-06T12:01:08.343Z,22.17
2022-11-06T12:02:08.554Z,20.75
2022-11-06T12:03:08.427Z,20.90
2022-11-06T12:04:08.318Z,21.52
2022-11-06T12:05:09.308Z,22.01
2022-11-06T12:06:08.319Z,22.10
2022-11-06T12:07:08.320Z,22.58
2022-11-06T12:08:08.286Z,22.47
2022-11-06T12:09:08.278Z,22.65
2022-11-06T12:10:08.265Z,22.93
2022-11-06T12:11:08.270Z,23.27
2022-11-06T12:12:08.290Z,23.28
2022-11-06T12:13:08.248Z,22.77
2022-11-06T12:14:08.241Z,22.93
2022-11-06T12:15:08.230Z,23.24
2022-11-06T12:16:08.225Z,23.00
2022-11-06T12:17:08.246Z,22.85
2022-11-06T12:18:08.209Z,21.40
2022-11-06T12:19:08.203Z,21.48
2022-11-06T12:20:08.189Z,21.55
2022-11-06T12:21:08.190Z,21.54
2022-11-06T12:22:08.203Z,21.42
2022-11-06T12:23:08.168Z,21.37
2022-11-06T12:24:08.161Z,21.39
2022-11-06T12:25:08.173Z,20.85
2022-11-06T12:26:08.146Z,20.87
2022-11-06T12:27:08.170Z,21.33
2022-11-06T12:28:08.123Z,21.57
2022-11-06T12:29:08.122Z,21.74
2022-11-06T12:30:08.109Z,20.93
2022-11-06T12:31:08.103Z,20.90
2022-11-06T12:32:08.092Z,20.81
2022-11-06T12:33:08.119Z,21.08
2022-11-06T12:34:11.980Z,20.90
2022-11-06T12:35:09.072Z,20.63
2022-11-06T12:36:08.078Z,20.62
2022-11-06T12:37:08.049Z,20.37
2022-11-06T12:38:08.088Z,20.11
2022-11-06T12:39:08.042Z,20.10
2022-11-06T12:40:08.035Z,19.88
2022-11-06T12:41:08.025Z,20.11
2022-11-06T12:42:08.018Z,19.81
2022-11-06T12:43:08.105Z,19.82
2022-11-06T12:44:07.988Z,20.00
2022-11-06T12:45:08.994Z,20.10
2022-11-06T12:46:07.999Z,20.59
2022-11-06T12:47:07.975Z,20.75
2022-11-06T12:48:07.994Z,20.24
2022-11-06T12:49:07.953Z,19.51
2022-11-06T12:50:07.956Z,19.45
2022-11-06T12:51:07.945Z,19.33
2022-11-06T12:52:07.932Z,19.37
2022-11-06T12:53:07.991Z,19.44
2022-11-06T12:54:07.931Z,19.41
2022-11-06T12:55:07.916Z,19.88
2022-11-06T12:56:07.899Z,19.76
2022-11-06T12:57:07.898Z,19.04
2022-11-06T12:58:07.919Z,17.86
2022-11-06T12:59:07.879Z,17.29
2022-11-06T13:00:07.875Z,16.66
2022-11-06T13:01:07.912Z,16.10
2022-11-06T13:02:07.985Z,15.64
2022-11-06T13:03:07.881Z,15.18
2022-11-06T13:04:07.848Z,15.11
2022-11-06T13:05:07.836Z,14.93
2022-11-06T13:06:12.951Z,14.87
2022-11-06T13:07:09.813Z,14.87